sensor_id;sensor_type;location;lat;lon;timestamp;pressure;altitude;pressure_sealevel;temperature;humidity
62864;BME280;48954;59.950;11.014;2023-05-12T00:00:12;100565.95;;;7.01;68.92
62864;BME280;48954;59.950;11.014;2023-05-12T00:02:58;100563.40;;;6.97;68.92
62864;BME280;48954;59.950;11.014;2023-05-12T00:05:25;100564.80;;;6.93;68.98
62864;BME280;48954;59.950;11.014;2023-05-12T00:07:51;100562.03;;;6.90;69.19
62864;BME280;48954;59.950;11.014;2023-05-12T00:10:18;100566.58;;;6.87;69.24
62864;BME280;48954;59.950;11.014;2023-05-12T00:12:45;100571.77;;;6.83;69.36
62864;BME280;48954;59.950;11.014;2023-05-12T00:15:11;100573.55;;;6.79;69.30
62864;BME280;48954;59.950;11.014;2023-05-12T00:17:38;100573.52;;;6.76;69.35
62864;BME280;48954;59.950;11.014;2023-05-12T00:20:05;100576.61;;;6.71;69.67
62864;BME280;48954;59.950;11.014;2023-05-12T00:22:31;100573.27;;;6.67;69.60
62864;BME280;48954;59.950;11.014;2023-05-12T00:24:58;100576.84;;;6.62;69.78
62864;BME280;48954;59.950;11.014;2023-05-12T00:27:25;100571.89;;;6.58;69.82
62864;BME280;48954;59.950;11.014;2023-05-12T00:29:51;100573.57;;;6.55;69.73
62864;BME280;48954;59.950;11.014;2023-05-12T00:32:18;100576.66;;;6.52;70.09
62864;BME280;48954;59.950;11.014;2023-05-12T00:34:44;100576.85;;;6.49;70.28
62864;BME280;48954;59.950;11.014;2023-05-12T00:37:11;100578.39;;;6.47;70.19
62864;BME280;48954;59.950;11.014;2023-05-12T00:39:37;100575.88;;;6.42;70.39
62864;BME280;48954;59.950;11.014;2023-05-12T00:42:06;100578.35;;;6.39;70.14
62864;BME280;48954;59.950;11.014;2023-05-12T00:44:33;100577.05;;;6.36;70.56
62864;BME280;48954;59.950;11.014;2023-05-12T00:46:59;100580.50;;;6.35;70.81
62864;BME280;48954;59.950;11.014;2023-05-12T00:49:26;100581.58;;;6.33;70.90
62864;BME280;48954;59.950;11.014;2023-05-12T00:51:54;100580.50;;;6.32;70.71
62864;BME280;48954;59.950;11.014;2023-05-12T00:54:21;100590.70;;;6.30;70.98
62864;BME280;48954;59.950;11.014;2023-05-12T00:56:48;100588.13;;;6.28;70.87
62864;BME280;48954;59.950;11.014;2023-05-12T00:59:20;100590.89;;;6.27;70.91
62864;BME280;48954;59.950;11.014;2023-05-12T01:01:48;100592.10;;;6.24;70.92
62864;BME280;48954;59.950;11.014;2023-05-12T01:04:15;100596.17;;;6.21;71.00
62864;BME280;48954;59.950;11.014;2023-05-12T01:06:48;100601.89;;;6.18;70.97
62864;BME280;48954;59.950;11.014;2023-05-12T01:09:19;100599.98;;;6.13;71.06
62864;BME280;48954;59.950;11.014;2023-05-12T01:11:46;100604.61;;;6.09;71.28
62864;BME280;48954;59.950;11.014;2023-05-12T01:14:13;100604.89;;;6.06;71.07
62864;BME280;48954;59.950;11.014;2023-05-12T01:16:50;100608.89;;;6.02;71.25
62864;BME280;48954;59.950;11.014;2023-05-12T01:19:42;100611.82;;;5.99;71.09
62864;BME280;48954;59.950;11.014;2023-05-12T01:22:09;100613.67;;;5.94;71.13
62864;BME280;48954;59.950;11.014;2023-05-12T01:24:44;100614.53;;;5.90;71.27
62864;BME280;48954;59.950;11.014;2023-05-12T01:27:13;100616.33;;;5.86;71.39
62864;BME280;48954;59.950;11.014;2023-05-12T01:29:46;100620.77;;;5.83;71.55
62864;BME280;48954;59.950;11.014;2023-05-12T01:32:14;100620.02;;;5.80;71.35
62864;BME280;48954;59.950;11.014;2023-05-12T01:34:41;100620.41;;;5.77;71.73
62864;BME280;48954;59.950;11.014;2023-05-12T01:37:09;100626.86;;;5.74;71.47
62864;BME280;48954;59.950;11.014;2023-05-12T01:39:37;100628.79;;;5.68;71.51
62864;BME280;48954;59.950;11.014;2023-05-12T01:42:04;100631.48;;;5.65;71.92
62864;BME280;48954;59.950;11.014;2023-05-12T01:44:31;100630.67;;;5.61;71.82
62864;BME280;48954;59.950;11.014;2023-05-12T01:47:03;100631.17;;;5.57;72.06
62864;BME280;48954;59.950;11.014;2023-05-12T01:49:30;100633.79;;;5.54;72.00
62864;BME280;48954;59.950;11.014;2023-05-12T01:51:56;100635.46;;;5.49;71.85
62864;BME280;48954;59.950;11.014;2023-05-12T01:54:23;100640.17;;;5.46;71.93
62864;BME280;48954;59.950;11.014;2023-05-12T01:56:50;100642.27;;;5.43;72.28
62864;BME280;48954;59.950;11.014;2023-05-12T01:59:16;100640.30;;;5.39;72.28
62864;BME280;48954;59.950;11.014;2023-05-12T02:01:43;100639.98;;;5.36;72.37
62864;BME280;48954;59.950;11.014;2023-05-12T02:04:10;100641.16;;;5.34;72.26
62864;BME280;48954;59.950;11.014;2023-05-12T02:06:37;100639.95;;;5.30;72.42
62864;BME280;48954;59.950;11.014;2023-05-12T02:09:03;100637.69;;;5.28;72.29
62864;BME280;48954;59.950;11.014;2023-05-12T02:11:30;100639.51;;;5.24;72.37
62864;BME280;48954;59.950;11.014;2023-05-12T02:13:56;100636.13;;;5.21;72.45
62864;BME280;48954;59.950;11.014;2023-05-12T02:16:23;100637.05;;;5.19;72.65
62864;BME280;48954;59.950;11.014;2023-05-12T02:18:50;100636.34;;;5.19;72.98
62864;BME280;48954;59.950;11.014;2023-05-12T02:21:16;100634.52;;;5.18;72.79
62864;BME280;48954;59.950;11.014;2023-05-12T02:23:43;100636.23;;;5.19;73.07
62864;BME280;48954;59.950;11.014;2023-05-12T02:26:09;100640.19;;;5.18;73.06
62864;BME280;48954;59.950;11.014;2023-05-12T02:28:36;100641.63;;;5.19;73.24
62864;BME280;48954;59.950;11.014;2023-05-12T02:31:02;100641.11;;;5.18;73.12
62864;BME280;48954;59.950;11.014;2023-05-12T02:33:29;100643.61;;;5.18;73.30
62864;BME280;48954;59.950;11.014;2023-05-12T02:35:56;100641.77;;;5.18;73.41
62864;BME280;48954;59.950;11.014;2023-05-12T02:38:22;100643.23;;;5.18;73.64
62864;BME280;48954;59.950;11.014;2023-05-12T02:40:49;100641.31;;;5.19;73.56
62864;BME280;48954;59.950;11.014;2023-05-12T02:43:15;100640.86;;;5.19;73.69
62864;BME280;48954;59.950;11.014;2023-05-12T02:45:42;100638.55;;;5.20;73.90
62864;BME280;48954;59.950;11.014;2023-05-12T02:48:08;100637.75;;;5.21;73.67
62864;BME280;48954;59.950;11.014;2023-05-12T02:50:35;100634.95;;;5.22;73.98
62864;BME280;48954;59.950;11.014;2023-05-12T02:53:01;100636.77;;;5.24;74.15
62864;BME280;48954;59.950;11.014;2023-05-12T02:55:28;100640.23;;;5.26;74.30
62864;BME280;48954;59.950;11.014;2023-05-12T02:57:55;100641.96;;;5.27;74.25
62864;BME280;48954;59.950;11.014;2023-05-12T03:00:22;100644.30;;;5.27;74.16
62864;BME280;48954;59.950;11.014;2023-05-12T03:02:48;100648.15;;;5.29;74.11
62864;BME280;48954;59.950;11.014;2023-05-12T03:05:15;100647.79;;;5.31;74.10
62864;BME280;48954;59.950;11.014;2023-05-12T03:07:41;100645.42;;;5.32;74.37
62864;BME280;48954;59.950;11.014;2023-05-12T03:10:08;100648.52;;;5.33;74.46
62864;BME280;48954;59.950;11.014;2023-05-12T03:12:35;100652.37;;;5.35;74.51
62864;BME280;48954;59.950;11.014;2023-05-12T03:15:02;100655.29;;;5.37;74.30
62864;BME280;48954;59.950;11.014;2023-05-12T03:17:34;100657.02;;;5.38;74.19
62864;BME280;48954;59.950;11.014;2023-05-12T03:20:02;100655.88;;;5.41;74.45
62864;BME280;48954;59.950;11.014;2023-05-12T03:22:29;100651.22;;;5.42;74.38
62864;BME280;48954;59.950;11.014;2023-05-12T03:24:55;100652.49;;;5.44;74.34
62864;BME280;48954;59.950;11.014;2023-05-12T03:27:22;100654.50;;;5.47;74.26
62864;BME280;48954;59.950;11.014;2023-05-12T03:29:48;100654.96;;;5.48;74.06
62864;BME280;48954;59.950;11.014;2023-05-12T03:32:15;100655.12;;;5.48;74.24
62864;BME280;48954;59.950;11.014;2023-05-12T03:34:41;100649.81;;;5.49;74.22
62864;BME280;48954;59.950;11.014;2023-05-12T03:37:08;100652.88;;;5.51;74.42
62864;BME280;48954;59.950;11.014;2023-05-12T03:39:34;100653.66;;;5.54;74.35
62864;BME280;48954;59.950;11.014;2023-05-12T03:42:01;100654.84;;;5.55;74.41
62864;BME280;48954;59.950;11.014;2023-05-12T03:44:27;100657.55;;;5.58;74.54
62864;BME280;48954;59.950;11.014;2023-05-12T03:46:54;100657.39;;;5.60;74.59
62864;BME280;48954;59.950;11.014;2023-05-12T03:49:20;100662.34;;;5.64;74.62
62864;BME280;48954;59.950;11.014;2023-05-12T03:51:47;100667.61;;;5.68;74.49
62864;BME280;48954;59.950;11.014;2023-05-12T03:54:14;100669.40;;;5.73;74.57
62864;BME280;48954;59.950;11.014;2023-05-12T03:56:40;100668.60;;;5.78;74.51
62864;BME280;48954;59.950;11.014;2023-05-12T03:59:07;100668.20;;;5.82;74.71
62864;BME280;48954;59.950;11.014;2023-05-12T04:01:34;100668.23;;;5.87;74.69
62864;BME280;48954;59.950;11.014;2023-05-12T04:04:00;100669.28;;;5.91;74.67
62864;BME280;48954;59.950;11.014;2023-05-12T04:06:27;100671.29;;;5.95;74.85
62864;BME280;48954;59.950;11.014;2023-05-12T04:08:54;100673.77;;;6.00;74.62
62864;BME280;48954;59.950;11.014;2023-05-12T04:11:20;100670.17;;;6.06;74.76
62864;BME280;48954;59.950;11.014;2023-05-12T04:13:47;100668.38;;;6.10;74.85
62864;BME280;48954;59.950;11.014;2023-05-12T04:16:14;100668.12;;;6.14;74.85
62864;BME280;48954;59.950;11.014;2023-05-12T04:18:40;100667.00;;;6.18;74.75
62864;BME280;48954;59.950;11.014;2023-05-12T04:21:06;100671.24;;;6.21;74.82
62864;BME280;48954;59.950;11.014;2023-05-12T04:23:33;100667.06;;;6.26;74.75
62864;BME280;48954;59.950;11.014;2023-05-12T04:26:05;100668.23;;;6.33;74.79
62864;BME280;48954;59.950;11.014;2023-05-12T04:28:31;100672.59;;;6.40;74.74
62864;BME280;48954;59.950;11.014;2023-05-12T04:31:02;100673.91;;;6.48;74.65
62864;BME280;48954;59.950;11.014;2023-05-12T04:33:29;100674.54;;;6.55;74.59
62864;BME280;48954;59.950;11.014;2023-05-12T04:35:56;100677.73;;;6.64;74.52
62864;BME280;48954;59.950;11.014;2023-05-12T04:38:23;100679.54;;;6.72;74.56
62864;BME280;48954;59.950;11.014;2023-05-12T04:40:50;100675.70;;;6.81;74.51
62864;BME280;48954;59.950;11.014;2023-05-12T04:43:16;100676.23;;;6.91;74.25
62864;BME280;48954;59.950;11.014;2023-05-12T04:45:43;100678.65;;;7.01;74.23
62864;BME280;48954;59.950;11.014;2023-05-12T04:48:09;100682.57;;;7.12;74.33
62864;BME280;48954;59.950;11.014;2023-05-12T04:50:36;100683.68;;;7.22;74.19
62864;BME280;48954;59.950;11.014;2023-05-12T04:53:02;100684.54;;;7.33;74.33
62864;BME280;48954;59.950;11.014;2023-05-12T04:55:29;100684.59;;;7.43;74.08
62864;BME280;48954;59.950;11.014;2023-05-12T04:58:00;100686.46;;;7.54;73.94
62864;BME280;48954;59.950;11.014;2023-05-12T05:00:27;100686.44;;;7.66;73.75
62864;BME280;48954;59.950;11.014;2023-05-12T05:02:53;100690.86;;;7.78;73.83
62864;BME280;48954;59.950;11.014;2023-05-12T05:05:20;100697.41;;;7.91;73.96
62864;BME280;48954;59.950;11.014;2023-05-12T05:07:57;100699.09;;;8.03;73.50
62864;BME280;48954;59.950;11.014;2023-05-12T05:10:23;100692.27;;;8.16;73.24
62864;BME280;48954;59.950;11.014;2023-05-12T05:12:50;100694.84;;;8.28;73.18
62864;BME280;48954;59.950;11.014;2023-05-12T05:15:17;100691.42;;;8.39;73.03
62864;BME280;48954;59.950;11.014;2023-05-12T05:17:43;100693.04;;;8.52;72.82
62864;BME280;48954;59.950;11.014;2023-05-12T05:20:10;100691.16;;;8.63;72.91
62864;BME280;48954;59.950;11.014;2023-05-12T05:22:38;100691.48;;;8.74;72.48
62864;BME280;48954;59.950;11.014;2023-05-12T05:25:05;100689.27;;;8.84;72.35
62864;BME280;48954;59.950;11.014;2023-05-12T05:27:32;100687.32;;;8.95;72.19
62864;BME280;48954;59.950;11.014;2023-05-12T05:29:59;100692.30;;;9.07;72.04
62864;BME280;48954;59.950;11.014;2023-05-12T05:32:25;100694.75;;;9.18;71.75
62864;BME280;48954;59.950;11.014;2023-05-12T05:34:52;100696.08;;;9.29;71.58
62864;BME280;48954;59.950;11.014;2023-05-12T05:40:39;100699.80;;;9.54;71.09
62864;BME280;48954;59.950;11.014;2023-05-12T05:43:14;100703.69;;;9.67;70.83
62864;BME280;48954;59.950;11.014;2023-05-12T05:45:43;100708.25;;;9.79;70.64
62864;BME280;48954;59.950;11.014;2023-05-12T05:48:10;100708.96;;;9.90;70.46
62864;BME280;48954;59.950;11.014;2023-05-12T05:50:36;100709.19;;;10.03;70.20
62864;BME280;48954;59.950;11.014;2023-05-12T05:53:03;100711.73;;;10.15;69.79
62864;BME280;48954;59.950;11.014;2023-05-12T05:55:30;100715.55;;;10.27;69.57
62864;BME280;48954;59.950;11.014;2023-05-12T05:58:07;100716.43;;;10.42;69.50
62864;BME280;48954;59.950;11.014;2023-05-12T06:00:34;100718.36;;;10.59;69.24
62864;BME280;48954;59.950;11.014;2023-05-12T06:03:00;100716.60;;;10.78;69.07
62864;BME280;48954;59.950;11.014;2023-05-12T06:05:27;100721.08;;;10.97;68.81
62864;BME280;48954;59.950;11.014;2023-05-12T06:07:54;100724.81;;;11.16;68.73
62864;BME280;48954;59.950;11.014;2023-05-12T06:10:21;100726.11;;;11.34;68.31
62864;BME280;48954;59.950;11.014;2023-05-12T06:12:49;100729.15;;;11.52;67.95
62864;BME280;48954;59.950;11.014;2023-05-12T06:15:17;100722.72;;;11.67;67.54
62864;BME280;48954;59.950;11.014;2023-05-12T06:17:44;100716.83;;;11.76;66.91
62864;BME280;48954;59.950;11.014;2023-05-12T06:20:13;100717.13;;;11.75;66.31
62864;BME280;48954;59.950;11.014;2023-05-12T06:22:40;100713.37;;;11.83;66.46
62864;BME280;48954;59.950;11.014;2023-05-12T06:25:07;100716.09;;;11.92;65.92
62864;BME280;48954;59.950;11.014;2023-05-12T06:27:33;100715.75;;;11.99;66.01
62864;BME280;48954;59.950;11.014;2023-05-12T06:30:00;100714.86;;;12.15;66.04
62864;BME280;48954;59.950;11.014;2023-05-12T06:32:26;100712.66;;;12.36;65.91
62864;BME280;48954;59.950;11.014;2023-05-12T06:34:53;100712.17;;;12.51;65.30
62864;BME280;48954;59.950;11.014;2023-05-12T06:37:19;100711.63;;;12.62;64.97
62864;BME280;48954;59.950;11.014;2023-05-12T06:39:50;100709.89;;;12.67;64.50
62864;BME280;48954;59.950;11.014;2023-05-12T06:42:17;100714.73;;;12.79;64.29
62864;BME280;48954;59.950;11.014;2023-05-12T06:44:43;100712.35;;;12.93;64.21
62864;BME280;48954;59.950;11.014;2023-05-12T06:47:09;100714.48;;;13.10;64.02
62864;BME280;48954;59.950;11.014;2023-05-12T06:49:36;100709.98;;;13.26;63.80
62864;BME280;48954;59.950;11.014;2023-05-12T06:52:05;100716.81;;;13.43;63.61
62864;BME280;48954;59.950;11.014;2023-05-12T06:54:32;100716.44;;;13.62;63.31
62864;BME280;48954;59.950;11.014;2023-05-12T06:56:59;100716.40;;;13.79;63.06
62864;BME280;48954;59.950;11.014;2023-05-12T06:59:25;100719.69;;;13.97;62.72
62864;BME280;48954;59.950;11.014;2023-05-12T07:01:53;100718.85;;;14.16;62.40
62864;BME280;48954;59.950;11.014;2023-05-12T07:04:19;100718.88;;;14.33;62.12
62864;BME280;48954;59.950;11.014;2023-05-12T07:06:46;100714.18;;;14.49;61.65
62864;BME280;48954;59.950;11.014;2023-05-12T07:09:13;100714.41;;;14.63;61.39
62864;BME280;48954;59.950;11.014;2023-05-12T07:11:40;100720.51;;;14.79;60.97
62864;BME280;48954;59.950;11.014;2023-05-12T07:14:06;100724.77;;;14.94;60.68
62864;BME280;48954;59.950;11.014;2023-05-12T07:16:33;100721.48;;;15.08;60.41
62864;BME280;48954;59.950;11.014;2023-05-12T07:18:59;100725.65;;;15.19;59.86
62864;BME280;48954;59.950;11.014;2023-05-12T07:21:26;100720.70;;;15.16;59.06
62864;BME280;48954;59.950;11.014;2023-05-12T07:23:52;100725.38;;;15.25;59.59
62864;BME280;48954;59.950;11.014;2023-05-12T07:26:20;100726.07;;;15.41;59.37
62864;BME280;48954;59.950;11.014;2023-05-12T07:28:46;100722.76;;;15.58;59.19
62864;BME280;48954;59.950;11.014;2023-05-12T07:31:13;100728.89;;;15.78;59.00
62864;BME280;48954;59.950;11.014;2023-05-12T07:33:39;100726.55;;;15.90;58.09
62864;BME280;48954;59.950;11.014;2023-05-12T07:36:06;100726.71;;;15.95;57.51
62864;BME280;48954;59.950;11.014;2023-05-12T07:38:33;100729.87;;;15.99;57.30
62864;BME280;48954;59.950;11.014;2023-05-12T07:41:02;100728.77;;;16.10;57.24
62864;BME280;48954;59.950;11.014;2023-05-12T07:43:29;100722.95;;;16.24;57.11
62864;BME280;48954;59.950;11.014;2023-05-12T07:45:57;100723.91;;;16.41;56.88
62864;BME280;48954;59.950;11.014;2023-05-12T07:48:24;100721.29;;;16.63;56.61
62864;BME280;48954;59.950;11.014;2023-05-12T07:50:51;100718.33;;;16.86;56.28
62864;BME280;48954;59.950;11.014;2023-05-12T07:53:19;100719.41;;;17.09;55.72
62864;BME280;48954;59.950;11.014;2023-05-12T07:55:47;100723.43;;;17.28;55.62
62864;BME280;48954;59.950;11.014;2023-05-12T07:58:13;100726.33;;;17.47;55.22
62864;BME280;48954;59.950;11.014;2023-05-12T08:00:40;100724.09;;;17.55;54.06
62864;BME280;48954;59.950;11.014;2023-05-12T08:03:08;100724.04;;;17.71;54.27
62864;BME280;48954;59.950;11.014;2023-05-12T08:05:36;100722.17;;;17.87;54.01
62864;BME280;48954;59.950;11.014;2023-05-12T08:08:03;100725.80;;;18.02;53.67
62864;BME280;48954;59.950;11.014;2023-05-12T08:10:31;100724.15;;;18.14;53.06
62864;BME280;48954;59.950;11.014;2023-05-12T08:12:57;100724.88;;;18.28;52.94
62864;BME280;48954;59.950;11.014;2023-05-12T08:15:25;100725.45;;;18.45;52.69
62864;BME280;48954;59.950;11.014;2023-05-12T08:17:52;100728.23;;;18.68;52.38
62864;BME280;48954;59.950;11.014;2023-05-12T08:20:19;100728.74;;;18.76;51.11
62864;BME280;48954;59.950;11.014;2023-05-12T08:22:46;100732.98;;;18.80;51.06
62864;BME280;48954;59.950;11.014;2023-05-12T08:25:13;100729.45;;;18.93;51.10
62864;BME280;48954;59.950;11.014;2023-05-12T08:27:41;100734.27;;;19.06;50.60
62864;BME280;48954;59.950;11.014;2023-05-12T08:30:12;100730.50;;;19.21;49.92
62864;BME280;48954;59.950;11.014;2023-05-12T08:32:39;100731.04;;;19.43;50.02
62864;BME280;48954;59.950;11.014;2023-05-12T08:35:09;100730.38;;;19.68;49.54
62864;BME280;48954;59.950;11.014;2023-05-12T08:37:36;100731.10;;;19.90;49.06
62864;BME280;48954;59.950;11.014;2023-05-12T08:40:12;100728.70;;;20.06;48.77
62864;BME280;48954;59.950;11.014;2023-05-12T08:42:43;100729.39;;;20.27;48.69
62864;BME280;48954;59.950;11.014;2023-05-12T08:45:10;100730.89;;;20.49;48.10
62864;BME280;48954;59.950;11.014;2023-05-12T08:47:37;100731.97;;;20.65;47.45
62864;BME280;48954;59.950;11.014;2023-05-12T08:50:04;100729.63;;;20.71;46.65
62864;BME280;48954;59.950;11.014;2023-05-12T08:52:32;100726.05;;;20.87;46.97
62864;BME280;48954;59.950;11.014;2023-05-12T08:55:00;100727.15;;;21.10;46.45
62864;BME280;48954;59.950;11.014;2023-05-12T08:57:32;100724.48;;;21.35;45.91
62864;BME280;48954;59.950;11.014;2023-05-12T09:00:20;100726.72;;;21.59;45.76
62864;BME280;48954;59.950;11.014;2023-05-12T09:03:05;100724.36;;;21.84;45.20
62864;BME280;48954;59.950;11.014;2023-05-12T09:05:44;100724.80;;;21.97;44.28
62864;BME280;48954;59.950;11.014;2023-05-12T09:08:19;100723.45;;;22.00;44.21
62864;BME280;48954;59.950;11.014;2023-05-12T09:10:47;100720.02;;;22.16;44.31
62864;BME280;48954;59.950;11.014;2023-05-12T09:13:51;100716.86;;;22.43;44.00
62864;BME280;48954;59.950;11.014;2023-05-12T09:16:28;100718.58;;;22.70;43.48
62864;BME280;48954;59.950;11.014;2023-05-12T09:19:09;100715.77;;;22.91;42.82
62864;BME280;48954;59.950;11.014;2023-05-12T09:21:38;100714.36;;;23.13;42.65
62864;BME280;48954;59.950;11.014;2023-05-12T09:24:07;100712.80;;;23.33;42.09
62864;BME280;48954;59.950;11.014;2023-05-12T09:26:53;100707.89;;;23.45;42.18
62864;BME280;48954;59.950;11.014;2023-05-12T09:29:46;100699.46;;;23.57;41.23
62864;BME280;48954;59.950;11.014;2023-05-12T09:32:17;100699.64;;;23.45;39.89
62864;BME280;48954;59.950;11.014;2023-05-12T09:35:01;100702.13;;;23.34;40.08
62864;BME280;48954;59.950;11.014;2023-05-12T09:38:13;100696.07;;;23.53;40.01
62864;BME280;48954;59.950;11.014;2023-05-12T09:40:57;100699.42;;;23.84;40.51
62864;BME280;48954;59.950;11.014;2023-05-12T09:43:43;100698.59;;;24.13;39.79
62864;BME280;48954;59.950;11.014;2023-05-12T09:46:10;100698.38;;;24.30;39.17
62864;BME280;48954;59.950;11.014;2023-05-12T09:48:37;100690.48;;;24.40;39.28
62864;BME280;48954;59.950;11.014;2023-05-12T09:51:16;100695.52;;;24.65;39.13
62864;BME280;48954;59.950;11.014;2023-05-12T09:53:44;100694.10;;;24.87;38.35
62864;BME280;48954;59.950;11.014;2023-05-12T09:56:14;100690.46;;;24.93;37.76
62864;BME280;48954;59.950;11.014;2023-05-12T09:58:46;100690.23;;;25.07;38.01
62864;BME280;48954;59.950;11.014;2023-05-12T10:01:15;100688.30;;;25.21;37.50
62864;BME280;48954;59.950;11.014;2023-05-12T10:03:47;100683.22;;;25.43;37.94
62864;BME280;48954;59.950;11.014;2023-05-12T10:06:25;100678.98;;;25.63;36.99
62864;BME280;48954;59.950;11.014;2023-05-12T10:09:10;100675.84;;;25.76;37.19
62864;BME280;48954;59.950;11.014;2023-05-12T10:11:39;100673.98;;;25.92;36.66
62864;BME280;48954;59.950;11.014;2023-05-12T10:14:06;100670.41;;;25.87;35.72
62864;BME280;48954;59.950;11.014;2023-05-12T10:16:33;100674.59;;;25.90;35.78
62864;BME280;48954;59.950;11.014;2023-05-12T10:19:01;100676.52;;;25.96;35.49
62864;BME280;48954;59.950;11.014;2023-05-12T10:21:28;100673.95;;;25.93;35.09
62864;BME280;48954;59.950;11.014;2023-05-12T10:23:57;100674.32;;;25.91;35.56
62864;BME280;48954;59.950;11.014;2023-05-12T10:26:27;100671.14;;;26.05;35.58
62864;BME280;48954;59.950;11.014;2023-05-12T10:28:54;100671.77;;;26.17;34.82
62864;BME280;48954;59.950;11.014;2023-05-12T10:31:22;100672.30;;;26.25;34.79
62864;BME280;48954;59.950;11.014;2023-05-12T10:33:57;100669.20;;;26.26;34.58
62864;BME280;48954;59.950;11.014;2023-05-12T10:36:23;100669.85;;;26.11;34.37
62864;BME280;48954;59.950;11.014;2023-05-12T10:38:50;100670.77;;;25.88;34.71
62864;BME280;48954;59.950;11.014;2023-05-12T10:41:29;100669.11;;;25.58;34.81
62864;BME280;48954;59.950;11.014;2023-05-12T10:43:57;100665.82;;;25.74;34.58
62864;BME280;48954;59.950;11.014;2023-05-12T10:46:25;100665.14;;;25.75;34.69
62864;BME280;48954;59.950;11.014;2023-05-12T10:49:06;100664.86;;;25.50;34.56
62864;BME280;48954;59.950;11.014;2023-05-12T10:51:46;100662.36;;;25.65;34.56
62864;BME280;48954;59.950;11.014;2023-05-12T10:54:19;100667.09;;;25.52;34.74
62864;BME280;48954;59.950;11.014;2023-05-12T10:56:47;100668.13;;;25.11;34.51
62864;BME280;48954;59.950;11.014;2023-05-12T10:59:22;100672.23;;;24.72;34.89
62864;BME280;48954;59.950;11.014;2023-05-12T11:02:03;100674.36;;;24.31;35.22
62864;BME280;48954;59.950;11.014;2023-05-12T11:04:39;100669.51;;;24.41;35.76
62864;BME280;48954;59.950;11.014;2023-05-12T11:07:12;100666.64;;;24.79;35.76
62864;BME280;48954;59.950;11.014;2023-05-12T11:09:43;100671.20;;;25.31;36.03
62864;BME280;48954;59.950;11.014;2023-05-12T11:12:12;100667.02;;;25.96;35.32
62864;BME280;48954;59.950;11.014;2023-05-12T11:14:43;100665.85;;;26.28;35.12
62864;BME280;48954;59.950;11.014;2023-05-12T11:17:14;100662.71;;;26.57;33.48
62864;BME280;48954;59.950;11.014;2023-05-12T11:19:47;100671.98;;;26.71;33.10
62864;BME280;48954;59.950;11.014;2023-05-12T11:22:20;100667.13;;;26.85;32.12
62864;BME280;48954;59.950;11.014;2023-05-12T11:24:48;100663.64;;;26.86;30.65
62864;BME280;48954;59.950;11.014;2023-05-12T11:27:18;100666.21;;;26.26;30.74
62864;BME280;48954;59.950;11.014;2023-05-12T11:29:57;100667.04;;;26.05;30.90
62864;BME280;48954;59.950;11.014;2023-05-12T11:32:25;100664.71;;;26.08;30.36
62864;BME280;48954;59.950;11.014;2023-05-12T11:34:54;100669.36;;;26.11;30.62
62864;BME280;48954;59.950;11.014;2023-05-12T11:37:22;100670.75;;;26.17;30.31
62864;BME280;48954;59.950;11.014;2023-05-12T11:39:48;100669.39;;;26.13;29.43
62864;BME280;48954;59.950;11.014;2023-05-12T11:42:15;100667.78;;;26.01;29.84
62864;BME280;48954;59.950;11.014;2023-05-12T11:44:46;100672.61;;;25.79;29.95
62864;BME280;48954;59.950;11.014;2023-05-12T11:47:14;100673.00;;;25.60;29.62
62864;BME280;48954;59.950;11.014;2023-05-12T11:49:46;100672.02;;;25.40;29.41
62864;BME280;48954;59.950;11.014;2023-05-12T11:52:14;100671.77;;;25.20;29.33
62864;BME280;48954;59.950;11.014;2023-05-12T11:57:26;100664.69;;;24.95;28.62
62864;BME280;48954;59.950;11.014;2023-05-12T12:00:05;100660.05;;;24.94;28.80
62864;BME280;48954;59.950;11.014;2023-05-12T12:02:32;100664.64;;;24.93;29.19
62864;BME280;48954;59.950;11.014;2023-05-12T12:04:59;100662.98;;;24.84;29.67
62864;BME280;48954;59.950;11.014;2023-05-12T12:07:34;100663.44;;;24.93;29.66
62864;BME280;48954;59.950;11.014;2023-05-12T12:10:15;100666.56;;;24.86;28.92
62864;BME280;48954;59.950;11.014;2023-05-12T12:12:43;100665.13;;;24.66;28.50
62864;BME280;48954;59.950;11.014;2023-05-12T12:15:10;100662.10;;;24.73;28.58
62864;BME280;48954;59.950;11.014;2023-05-12T12:17:42;100669.59;;;24.91;28.53
62864;BME280;48954;59.950;11.014;2023-05-12T12:20:09;100669.37;;;24.94;28.14
62864;BME280;48954;59.950;11.014;2023-05-12T12:22:36;100667.61;;;24.93;28.27
62864;BME280;48954;59.950;11.014;2023-05-12T12:25:02;100659.45;;;24.76;28.37
62864;BME280;48954;59.950;11.014;2023-05-12T12:27:32;100654.21;;;24.73;28.09
62864;BME280;48954;59.950;11.014;2023-05-12T12:29:59;100658.71;;;24.66;28.38
62864;BME280;48954;59.950;11.014;2023-05-12T12:32:26;100662.27;;;24.48;28.41
62864;BME280;48954;59.950;11.014;2023-05-12T12:34:52;100660.42;;;24.37;26.96
62864;BME280;48954;59.950;11.014;2023-05-12T12:37:19;100665.67;;;24.48;27.30
62864;BME280;48954;59.950;11.014;2023-05-12T12:39:46;100659.60;;;24.62;27.26
62864;BME280;48954;59.950;11.014;2023-05-12T12:42:14;100663.02;;;24.64;27.60
62864;BME280;48954;59.950;11.014;2023-05-12T12:44:44;100658.93;;;24.78;27.90
62864;BME280;48954;59.950;11.014;2023-05-12T12:47:11;100653.33;;;24.92;27.83
62864;BME280;48954;59.950;11.014;2023-05-12T12:49:37;100654.62;;;24.84;28.28
62864;BME280;48954;59.950;11.014;2023-05-12T12:52:04;100644.66;;;24.83;28.07
62864;BME280;48954;59.950;11.014;2023-05-12T12:54:31;100649.09;;;24.80;28.09
62864;BME280;48954;59.950;11.014;2023-05-12T12:56:57;100642.45;;;24.82;28.48
62864;BME280;48954;59.950;11.014;2023-05-12T12:59:24;100647.59;;;24.81;28.47